Mc Clellan-Palomar Airport
KCRQ : now visible

Airfield :











YOU CAN JOIN US ON...

 
LOGIN :

Register | Disclaimer

   EN    FR    IT 

 









Legend :    VFR   Marginal VFR   IFR   Intensive IFR   Very Intensive IFR
Visi :
Ceiling :
>= 8 km
>= 3000ft
5 to 8 km
1000 to 3000 ft
1500m to 5 km
500 to 1000 ft
800 to 1500m
200 to 500 ft
< 800m
< 200 ft
Symbols :   Thunderstorms  Fog  Heavy snow  Heavy precipitations  Wind > 20 kt






- Airport Elevation : 331 ft


KCRQ - Mc Clellan-Palomar

CURRENT METAR :
  • 221253Z AUTO 06004KT 10SM CLR 12/09 A3009 RMK AO2 SLP186 T01170089

EXPIRED METARs :
  • 221153Z AUTO 06004KT 10SM CLR 12/09 A3008 RMK AO2 SLP184 T01170089 10133 20117 55001
  • 221053Z AUTO 06006KT 10SM CLR 12/09 A3008 RMK AO2 SLP184 T01220094

TAF KCRQ
Valid from the 22 at 12:00 until the 23 at 12:00 UTC


221134Z 2212/2312 VRB05KT P6SM SCT020
FM222100 25007KT P6SM BKN250
FM230200 VRB04KT P6SM SCT250



MET'MAP, your aeronautical weather chart ! - Copyright ORBIFLY December 2007 - Disclaimer

ORBIFLY MET'MAP TEAM :

Programming & Development : Alexandra Zaïnal
Concept & Development : Baudouin d'Aumeries
Co-Development & Prog : Marc-Olivier Méhu
Technical & hardware support : Manuel Goepfert

Contact : metmap@orbifly.com




SOURCES & CREDITS :

   NOAA       Earth
Advisory